Time;durP1;ratioP1;P1;durP2;ratioP2;P2;SDS_P1;SDS_P2;PMS_P1;PMS_P2;Temp;Humidity;BMP_temperature;BMP_pressure;BME280_temperature;BME280_humidity;BME280_pressure;Samples;Min_cycle;Max_cycle;Signal;HPM_P1;HPM_P2
2023/09/20 00:00:51;;;;;;;;;;;;;;;18.32;43.59;98517.34;5095925;28;20265;-59
2023/09/20 00:03:16;;;;;;;;;;;;;;;18.29;43.84;98517.13;5077729;28;20377;-58
2023/09/20 00:05:43;;;;;;;;;;;;;;;18.37;43.75;98516.50;5075636;28;19913;-60
2023/09/20 00:08:08;;;;;;;;;;;;;;;18.37;44.13;98524.66;5075511;28;19928;-59
2023/09/20 00:10:33;;;;;;;;;;;;;;;18.30;43.60;98529.63;5066121;28;20305;-60
2023/09/20 00:12:59;;;;;;;;;;;;;;;18.25;44.17;98537.84;5055430;28;19913;-59
2023/09/20 00:15:24;;;;;;;;;;;;;;;18.11;44.12;98535.84;5060323;28;19971;-59
2023/09/20 00:17:49;;;;;;;;;;;;;;;18.07;43.75;98528.56;5095830;28;20395;-60
2023/09/20 00:20:15;;;;;;;;;;;;;;;18.15;43.73;98528.72;5085173;28;19920;-60
2023/09/20 00:22:43;;;;;;;;;;;;;;;18.25;43.83;98535.13;5075002;28;19912;-60
2023/09/20 00:25:12;;;;;;;;;;;;;;;18.17;43.69;98537.38;5075304;28;19919;-60
2023/09/20 00:27:38;;;;;;;;;;;;;;;18.23;44.24;98537.34;5064734;28;20387;-60
2023/09/20 00:30:06;;;;;;;;;;;;;;;18.09;43.96;98538.06;5076053;28;19916;-59
2023/09/20 00:32:31;;;;;;;;;;;;;;;18.12;44.08;98542.09;5075263;28;19913;-59
2023/09/20 00:34:56;;;;;;;;;;;;;;;18.07;44.41;98540.25;5069710;28;19931;-58
2023/09/20 00:37:21;;;;;;;;;;;;;;;18.09;44.37;98546.19;5055094;28;19913;-60
2023/09/20 00:39:47;;;;;;;;;;;;;;;18.07;43.87;98542.13;5055150;28;20266;-59
2023/09/20 00:42:12;;;;;;;;;;;;;;;18.05;44.34;98558.72;5054787;28;19913;-61
2023/09/20 00:44:38;;;;;;;;;;;;;;;18.06;44.69;98563.06;5054834;28;19951;-61
2023/09/20 00:47:04;;;;;;;;;;;;;;;18.10;44.40;98574.16;5055034;28;20331;-61
2023/09/20 00:49:29;;;;;;;;;;;;;;;18.15;44.09;98576.81;5062192;28;19952;-61
2023/09/20 00:51:55;;;;;;;;;;;;;;;18.15;44.51;98566.75;5074760;28;19912;-61
2023/09/20 00:54:21;;;;;;;;;;;;;;;18.30;44.81;98571.19;5074384;28;19916;-59
2023/09/20 00:56:47;;;;;;;;;;;;;;;18.34;43.94;98576.84;5075247;28;19912;-60
2023/09/20 00:59:13;;;;;;;;;;;;;;;18.30;43.96;98570.41;5074782;28;19919;-59
2023/09/20 01:01:39;;;;;;;;;;;;;;;18.28;44.12;98565.25;5074661;28;20192;-59
2023/09/20 01:04:05;;;;;;;;;;;;;;;18.31;43.93;98574.72;5074352;28;19927;-60
2023/09/20 01:06:30;;;;;;;;;;;;;;;18.31;44.39;98575.53;5074519;28;19912;-61
2023/09/20 01:08:55;;;;;;;;;;;;;;;18.11;43.47;98587.47;5074203;28;19921;-61
2023/09/20 01:11:21;;;;;;;;;;;;;;;18.06;44.14;98584.78;5058423;28;19917;-60
2023/09/20 01:13:47;;;;;;;;;;;;;;;18.07;43.65;98589.16;5054179;28;20012;-60
2023/09/20 01:16:14;;;;;;;;;;;;;;;18.14;43.89;98591.50;5064203;28;19920;-61
2023/09/20 01:18:40;;;;;;;;;;;;;;;18.16;43.84;98602.88;5074205;28;19913;-61
2023/09/20 01:21:05;;;;;;;;;;;;;;;18.27;44.05;98609.81;5074203;28;19996;-60
2023/09/20 01:23:32;;;;;;;;;;;;;;;18.34;43.99;98596.69;5073901;28;19916;-61
2023/09/20 01:25:58;;;;;;;;;;;;;;;18.35;43.73;98598.31;5074027;28;19918;-61
2023/09/20 01:28:26;;;;;;;;;;;;;;;18.36;43.53;98610.78;5083244;28;19919;-61
2023/09/20 01:30:51;;;;;;;;;;;;;;;18.37;43.59;98612.41;5071202;28;20369;-61
2023/09/20 01:33:16;;;;;;;;;;;;;;;18.34;43.37;98613.00;5053962;28;19999;-60
2023/09/20 01:35:45;;;;;;;;;;;;;;;18.27;43.33;98617.97;5053826;28;19963;-61
2023/09/20 01:38:10;;;;;;;;;;;;;;;18.21;43.56;98613.69;5053799;28;19912;-60
2023/09/20 01:40:36;;;;;;;;;;;;;;;18.14;43.48;98614.03;5053790;28;19919;-60
2023/09/20 01:43:03;;;;;;;;;;;;;;;18.06;43.53;98611.97;5053675;28;19919;-61
2023/09/20 01:45:29;;;;;;;;;;;;;;;18.09;43.08;98613.28;5054405;28;19917;-61
2023/09/20 01:47:55;;;;;;;;;;;;;;;18.06;43.72;98624.75;5073693;28;19919;-60
2023/09/20 01:50:25;;;;;;;;;;;;;;;18.09;43.76;98621.44;5073614;28;19924;-60
2023/09/20 01:52:54;;;;;;;;;;;;;;;18.12;43.47;98624.38;5073674;28;19918;-61
2023/09/20 01:55:22;;;;;;;;;;;;;;;18.10;43.37;98633.94;5078271;28;19920;-61
2023/09/20 01:57:48;;;;;;;;;;;;;;;18.12;43.31;98631.72;5093609;28;19937;-60
2023/09/20 02:00:16;;;;;;;;;;;;;;;18.07;43.46;98635.31;5093681;28;19916;-59
2023/09/20 02:02:44;;;;;;;;;;;;;;;18.05;43.26;98628.53;5080391;28;19920;-61
2023/09/20 02:05:10;;;;;;;;;;;;;;;18.08;43.45;98639.66;5073409;28;19912;-61
2023/09/20 02:07:35;;;;;;;;;;;;;;;18.03;43.83;98636.19;5072804;28;19923;-61
2023/09/20 02:10:00;;;;;;;;;;;;;;;17.96;44.26;98633.81;5073336;28;19912;-61
2023/09/20 02:12:26;;;;;;;;;;;;;;;18.02;43.85;98626.41;5073116;28;19916;-61
2023/09/20 02:14:51;;;;;;;;;;;;;;;18.07;44.02;98631.78;5073082;28;19917;-61
2023/09/20 02:17:17;;;;;;;;;;;;;;;18.05;44.28;98632.06;5091172;28;19918;-60
2023/09/20 02:19:45;;;;;;;;;;;;;;;17.99;43.44;98647.59;5093950;28;20003;-61
2023/09/20 02:22:12;;;;;;;;;;;;;;;17.94;44.13;98647.69;5093610;28;20370;-61
2023/09/20 02:24:38;;;;;;;;;;;;;;;18.02;43.74;98659.81;5093347;28;19919;-61
2023/09/20 02:27:08;;;;;;;;;;;;;;;18.06;43.52;98660.84;5088043;28;19916;-61
2023/09/20 02:29:33;;;;;;;;;;;;;;;18.05;43.54;98663.84;5067897;28;20360;-60
2023/09/20 02:32:00;;;;;;;;;;;;;;;18.09;43.53;98667.63;5073232;28;19938;-61
2023/09/20 02:34:25;;;;;;;;;;;;;;;18.02;43.86;98664.44;5072924;28;20359;-61
2023/09/20 02:36:51;;;;;;;;;;;;;;;18.06;44.13;98671.72;5073274;28;19940;-61
2023/09/20 02:39:18;;;;;;;;;;;;;;;18.02;43.78;98669.88;5073064;28;19962;-61
2023/09/20 02:41:43;;;;;;;;;;;;;;;18.01;43.91;98671.78;5073175;28;19920;-61
2023/09/20 02:44:09;;;;;;;;;;;;;;;17.96;43.56;98667.22;5073225;28;20292;-60
2023/09/20 02:46:34;;;;;;;;;;;;;;;18.07;43.90;98664.38;5072901;28;20284;-61
2023/09/20 02:48:59;;;;;;;;;;;;;;;17.97;43.43;98662.59;5073418;28;19912;-61
2023/09/20 02:51:24;;;;;;;;;;;;;;;17.93;43.75;98666.97;5072984;28;19919;-61
2023/09/20 02:53:50;;;;;;;;;;;;;;;17.98;43.50;98669.66;5072689;28;20357;-62
2023/09/20 02:56:15;;;;;;;;;;;;;;;17.88;43.88;98667.81;5086389;28;20376;-59
2023/09/20 02:58:41;;;;;;;;;;;;;;;17.94;44.29;98669.41;5093466;28;19912;-60
2023/09/20 03:01:09;;;;;;;;;;;;;;;17.92;43.85;98670.78;5093031;28;19986;-60
2023/09/20 03:03:35;;;;;;;;;;;;;;;17.85;43.87;98673.00;5052932;28;20360;-59
2023/09/20 03:06:07;;;;;;;;;;;;;;;17.87;44.22;98679.00;5053030;28;19913;-61
2023/09/20 03:08:34;;;;;;;;;;;;;;;17.81;44.20;98678.16;5059033;28;19967;-61
2023/09/20 03:11:00;;;;;;;;;;;;;;;17.79;43.57;98669.50;5072626;28;19919;-60
2023/09/20 03:13:26;;;;;;;;;;;;;;;17.80;43.57;98668.41;5073010;28;19912;-61
2023/09/20 03:15:54;;;;;;;;;;;;;;;17.80;43.29;98668.41;5079108;28;19917;-59
2023/09/20 03:18:22;;;;;;;;;;;;;;;17.73;43.74;98671.44;5093239;28;20261;-61
2023/09/20 03:20:48;;;;;;;;;;;;;;;17.83;43.69;98678.72;5095670;28;19995;-60
2023/09/20 03:23:14;;;;;;;;;;;;;;;17.78;43.50;98685.00;5094861;28;20351;-61
2023/09/20 03:25:40;;;;;;;;;;;;;;;17.82;43.60;98687.94;5076074;28;19999;-61
2023/09/20 03:28:09;;;;;;;;;;;;;;;17.77;44.06;98690.69;5085359;28;19912;-61
2023/09/20 03:30:37;;;;;;;;;;;;;;;17.80;43.85;98693.66;5076292;28;20357;-61
2023/09/20 03:33:04;;;;;;;;;;;;;;;17.74;43.62;98705.66;5058620;28;20015;-58
2023/09/20 03:35:29;;;;;;;;;;;;;;;17.68;43.85;98704.09;5076384;28;19921;-60
2023/09/20 03:37:54;;;;;;;;;;;;;;;17.73;43.93;98698.59;5075992;28;19912;-61
2023/09/20 03:40:22;;;;;;;;;;;;;;;17.72;44.63;98704.34;5076306;28;19912;-59
2023/09/20 03:42:54;;;;;;;;;;;;;;;17.71;44.01;98706.22;5076262;28;19912;-59
2023/09/20 03:45:19;;;;;;;;;;;;;;;17.77;44.00;98704.28;5076210;28;19917;-59
2023/09/20 03:47:47;;;;;;;;;;;;;;;17.60;43.67;98700.06;5075650;28;19918;-60
2023/09/20 03:50:13;;;;;;;;;;;;;;;17.68;43.53;98698.66;5075707;28;19920;-59
2023/09/20 03:52:39;;;;;;;;;;;;;;;17.74;43.60;98694.81;5057847;28;19912;-59
2023/09/20 03:55:05;;;;;;;;;;;;;;;17.71;43.07;98697.28;5078660;28;19955;-60
2023/09/20 03:57:30;;;;;;;;;;;;;;;17.56;42.98;98703.63;5096016;28;20006;-59
2023/09/20 03:59:58;;;;;;;;;;;;;;;17.59;43.13;98700.38;5095727;28;19978;-60
2023/09/20 04:05:26;;;;;;;;;;;;;;;17.49;42.87;98720.22;5075560;28;19917;-59
2023/09/20 04:07:54;;;;;;;;;;;;;;;17.44;43.15;98714.84;5075375;28;20019;-60
2023/09/20 04:10:19;;;;;;;;;;;;;;;17.48;43.26;98728.69;5068103;28;19913;-60
2023/09/20 04:12:48;;;;;;;;;;;;;;;17.59;43.02;98730.22;5055464;28;19913;-61
2023/09/20 04:15:14;;;;;;;;;;;;;;;17.68;42.98;98736.66;5057093;28;19917;-60
2023/09/20 04:17:40;;;;;;;;;;;;;;;17.61;43.30;98734.25;5077412;28;20358;-61
2023/09/20 04:20:06;;;;;;;;;;;;;;;17.59;43.09;98741.88;5088875;28;19916;-61
2023/09/20 04:22:36;;;;;;;;;;;;;;;17.62;43.23;98732.34;5075394;28;19966;-59
2023/09/20 04:25:02;;;;;;;;;;;;;;;17.67;43.15;98745.09;5075175;28;19912;-61
2023/09/20 04:27:31;;;;;;;;;;;;;;;17.64;43.48;98740.22;5075117;28;19919;-60
2023/09/20 04:29:57;;;;;;;;;;;;;;;17.66;43.22;98733.41;5074968;28;20003;-60
2023/09/20 04:32:23;;;;;;;;;;;;;;;17.64;43.33;98721.22;5075154;28;19952;-59
2023/09/20 04:34:52;;;;;;;;;;;;;;;17.77;43.90;98718.69;5074643;28;20292;-60
2023/09/20 04:37:17;;;;;;;;;;;;;;;17.66;43.15;98727.16;5057289;28;19959;-60
2023/09/20 04:39:43;;;;;;;;;;;;;;;17.62;42.95;98735.06;5074885;28;20378;-60
2023/09/20 04:42:11;;;;;;;;;;;;;;;17.56;42.73;98731.59;5074762;28;19917;-60
2023/09/20 04:44:36;;;;;;;;;;;;;;;17.53;42.96;98739.47;5074717;28;19932;-60
2023/09/20 04:47:02;;;;;;;;;;;;;;;17.64;42.70;98738.31;5074701;28;19912;-60
2023/09/20 04:49:27;;;;;;;;;;;;;;;17.71;42.59;98748.84;5074484;28;19988;-59
2023/09/20 04:51:53;;;;;;;;;;;;;;;17.57;42.31;98757.66;5074468;28;20003;-60
2023/09/20 04:54:21;;;;;;;;;;;;;;;17.58;42.82;98761.97;5073866;28;19912;-59
2023/09/20 04:56:47;;;;;;;;;;;;;;;17.59;42.65;98771.75;5092130;28;19947;-60
2023/09/20 04:59:15;;;;;;;;;;;;;;;17.78;43.05;98782.75;5094483;28;19911;-60
2023/09/20 05:01:42;;;;;;;;;;;;;;;17.84;42.40;98788.13;5082562;28;20015;-60
2023/09/20 05:04:07;;;;;;;;;;;;;;;17.94;42.65;98798.94;5074275;28;19940;-60
2023/09/20 05:06:33;;;;;;;;;;;;;;;18.06;42.06;98793.16;5074320;28;19919;-60
2023/09/20 05:08:58;;;;;;;;;;;;;;;18.08;41.93;98797.22;5074156;28;19924;-60
2023/09/20 05:11:24;;;;;;;;;;;;;;;18.11;42.08;98788.50;5058235;28;19913;-59
2023/09/20 05:13:51;;;;;;;;;;;;;;;18.15;42.69;98792.25;5054479;28;19917;-60
2023/09/20 05:16:16;;;;;;;;;;;;;;;18.24;42.57;98795.19;5067199;28;19920;-60
2023/09/20 05:18:42;;;;;;;;;;;;;;;18.22;42.84;98788.41;5056215;28;19916;-60
2023/09/20 05:21:07;;;;;;;;;;;;;;;18.14;43.32;98782.47;5074379;28;19912;-60
2023/09/20 05:23:32;;;;;;;;;;;;;;;18.13;43.65;98780.06;5073848;28;20368;-60
2023/09/20 05:25:58;;;;;;;;;;;;;;;18.16;43.80;98795.78;5074029;28;19919;-60
2023/09/20 05:28:25;;;;;;;;;;;;;;;18.28;44.10;98796.22;5082702;28;19912;-59
2023/09/20 05:30:50;;;;;;;;;;;;;;;18.37;43.36;98799.16;5074150;28;19935;-60
2023/09/20 05:33:16;;;;;;;;;;;;;;;18.40;42.72;98793.13;5073968;28;19916;-60
2023/09/20 05:35:42;;;;;;;;;;;;;;;18.46;43.38;98802.88;5073856;28;19916;-60
2023/09/20 05:38:08;;;;;;;;;;;;;;;18.46;41.45;98821.06;5073734;28;19948;-61
2023/09/20 05:40:34;;;;;;;;;;;;;;;18.44;42.06;98829.50;5073888;28;19947;-61
2023/09/20 05:42:59;;;;;;;;;;;;;;;18.42;42.05;98826.25;5073158;28;19923;-61
2023/09/20 05:45:26;;;;;;;;;;;;;;;18.29;41.77;98838.59;5073892;28;20424;-60
2023/09/20 05:47:51;;;;;;;;;;;;;;;18.31;42.79;98836.44;5073714;28;19916;-61
2023/09/20 05:50:16;;;;;;;;;;;;;;;18.16;42.73;98831.09;5073511;28;19923;-61
2023/09/20 05:52:43;;;;;;;;;;;;;;;18.15;43.48;98837.66;5073555;28;19952;-60
2023/09/20 05:55:13;;;;;;;;;;;;;;;18.11;44.37;98837.41;5077441;28;19920;-62
2023/09/20 05:57:43;;;;;;;;;;;;;;;18.12;45.99;98840.91;5072606;28;19920;-61
2023/09/20 06:00:15;;;;;;;;;;;;;;;18.11;46.69;98845.56;5065264;28;19912;-61
2023/09/20 06:02:41;;;;;;;;;;;;;;;18.01;47.58;98845.63;5060937;28;19966;-61
2023/09/20 06:05:08;;;;;;;;;;;;;;;18.05;47.63;98843.16;5053878;28;19913;-60
2023/09/20 06:07:35;;;;;;;;;;;;;;;17.98;48.66;98852.44;5053538;28;19936;-61
2023/09/20 06:10:03;;;;;;;;;;;;;;;17.99;48.77;98847.81;5057918;28;19923;-61
2023/09/20 06:12:29;;;;;;;;;;;;;;;18.10;49.26;98851.25;5073181;28;19920;-60
2023/09/20 06:14:54;;;;;;;;;;;;;;;18.12;48.48;98849.06;5073490;28;19916;-61
2023/09/20 06:17:20;;;;;;;;;;;;;;;18.19;48.58;98855.81;5073302;28;20364;-61
2023/09/20 06:19:46;;;;;;;;;;;;;;;18.23;48.69;98847.91;5073504;28;19913;-60
2023/09/20 06:22:13;;;;;;;;;;;;;;;18.26;48.44;98843.81;5073511;28;19974;-60
2023/09/20 06:24:38;;;;;;;;;;;;;;;18.29;48.86;98846.75;5073794;28;20357;-60
2023/09/20 06:27:04;;;;;;;;;;;;;;;18.40;48.54;98843.97;5076771;28;19919;-60
2023/09/20 06:29:29;;;;;;;;;;;;;;;18.45;48.37;98836.56;5079110;28;20404;-61
2023/09/20 06:31:54;;;;;;;;;;;;;;;18.50;47.99;98841.97;5073636;28;19912;-61
2023/09/20 06:34:21;;;;;;;;;;;;;;;18.57;48.32;98850.59;5073205;28;19943;-58
2023/09/20 06:36:47;;;;;;;;;;;;;;;18.61;47.90;98842.69;5055309;28;19917;-57
2023/09/20 06:39:13;;;;;;;;;;;;;;;18.64;48.13;98841.28;5072943;28;19913;-59
2023/09/20 06:41:41;;;;;;;;;;;;;;;18.64;48.04;98839.38;5072854;28;20101;-59
2023/09/20 06:44:07;;;;;;;;;;;;;;;18.69;48.48;98838.53;5073021;28;20296;-58
2023/09/20 06:46:34;;;;;;;;;;;;;;;18.71;48.76;98842.56;5072854;28;19917;-57
2023/09/20 06:48:59;;;;;;;;;;;;;;;18.76;47.87;98849.88;5073013;28;19923;-59
2023/09/20 06:51:25;;;;;;;;;;;;;;;18.83;47.81;98847.63;5072697;28;19912;-62
2023/09/20 06:53:52;;;;;;;;;;;;;;;18.90;47.31;98850.84;5073483;28;19928;-59
2023/09/20 06:56:17;;;;;;;;;;;;;;;18.99;47.77;98859.19;5076591;28;19917;-60
2023/09/20 06:58:45;;;;;;;;;;;;;;;19.15;46.97;98854.38;5076038;28;20007;-59
2023/09/20 07:01:10;;;;;;;;;;;;;;;19.24;48.04;98857.25;5076203;28;19977;-60
2023/09/20 07:03:35;;;;;;;;;;;;;;;19.26;48.07;98857.78;5056395;28;19917;-60
2023/09/20 07:06:02;;;;;;;;;;;;;;;19.34;47.64;98870.75;5038224;28;19913;-59
2023/09/20 07:08:31;;;;;;;;;;;;;;;19.45;47.88;98871.47;5058392;28;19924;-59
2023/09/20 07:10:56;;;;;;;;;;;;;;;19.51;47.56;98876.53;5063026;28;19913;-60
2023/09/20 07:13:25;;;;;;;;;;;;;;;19.45;45.61;98879.63;5056012;28;20309;-59
2023/09/20 07:15:51;;;;;;;;;;;;;;;19.41;45.86;98873.13;5068176;28;19955;-59
2023/09/20 07:18:17;;;;;;;;;;;;;;;19.28;44.69;98877.38;5096613;28;19916;-60
2023/09/20 07:20:44;;;;;;;;;;;;;;;19.27;45.08;98884.72;5096550;28;19911;-59
2023/09/20 07:23:12;;;;;;;;;;;;;;;19.28;45.26;98891.00;5094459;28;20299;-60
2023/09/20 07:25:38;;;;;;;;;;;;;;;19.07;44.83;98896.63;5076388;28;19912;-59
2023/09/20 07:28:07;;;;;;;;;;;;;;;19.02;44.80;98904.03;5085244;28;19998;-60
2023/09/20 07:30:34;;;;;;;;;;;;;;;18.91;45.82;98917.75;5076495;28;20003;-59
2023/09/20 07:33:03;;;;;;;;;;;;;;;18.93;46.30;98918.28;5076502;28;19920;-60
2023/09/20 07:35:38;;;;;;;;;;;;;;;19.02;46.85;98917.63;5075998;28;19916;-60
2023/09/20 07:38:06;;;;;;;;;;;;;;;18.97;45.99;98913.06;5076054;28;19912;-60
2023/09/20 07:40:31;;;;;;;;;;;;;;;19.01;45.85;98908.69;5076113;28;19912;-60
2023/09/20 07:43:07;;;;;;;;;;;;;;;19.05;45.87;98912.44;5076093;28;19954;-60
2023/09/20 07:45:38;;;;;;;;;;;;;;;19.06;45.51;98916.78;5075994;28;19912;-60
2023/09/20 07:48:11;;;;;;;;;;;;;;;19.05;45.70;98911.63;5075990;28;19912;-60
2023/09/20 07:50:41;;;;;;;;;;;;;;;19.10;45.79;98914.31;5076107;28;19916;-60
2023/09/20 07:53:10;;;;;;;;;;;;;;;19.08;44.93;98916.50;5076032;28;19912;-60
2023/09/20 07:55:37;;;;;;;;;;;;;;;19.05;45.29;98917.88;5082983;28;20399;-61
2023/09/20 07:58:03;;;;;;;;;;;;;;;19.12;45.00;98921.06;5096023;28;19912;-60
2023/09/20 08:00:28;;;;;;;;;;;;;;;19.05;44.85;98923.31;5096031;28;19927;-60
2023/09/20 08:02:54;;;;;;;;;;;;;;;19.06;44.87;98930.41;5081510;28;19916;-60
2023/09/20 08:05:20;;;;;;;;;;;;;;;18.98;44.21;98931.03;5074954;28;19923;-60
2023/09/20 08:07:46;;;;;;;;;;;;;;;18.89;43.71;98930.03;5075346;28;19917;-60
2023/09/20 08:10:12;;;;;;;;;;;;;;;18.90;43.71;98937.09;5069553;28;20387;-60
2023/09/20 08:12:37;;;;;;;;;;;;;;;18.88;43.49;98934.63;5055447;28;19939;-60
2023/09/20 08:15:03;;;;;;;;;;;;;;;18.90;43.69;98946.03;5055539;28;19920;-60
2023/09/20 08:20:12;;;;;;;;;;;;;;;19.03;43.66;98941.84;5087116;28;19912;-60
2023/09/20 09:01:01;;;;;;;;;;;;;;;19.21;44.57;98988.50;5091084;28;19916;-60
2023/09/20 09:03:27;;;;;;;;;;;;;;;19.20;45.31;98987.66;5055610;28;19912;-60
2023/09/20 09:05:53;;;;;;;;;;;;;;;19.30;46.40;98987.59;5054352;28;20254;-60
2023/09/20 09:08:19;;;;;;;;;;;;;;;19.34;46.35;98990.53;5054142;28;20019;-60
2023/09/20 09:10:44;;;;;;;;;;;;;;;19.37;45.88;98989.16;5064926;28;20007;-60
2023/09/20 09:13:09;;;;;;;;;;;;;;;19.37;46.78;98983.69;5056743;28;19912;-59
2023/09/20 09:15:34;;;;;;;;;;;;;;;19.40;45.93;98986.66;5076329;28;19923;-61
2023/09/20 09:18:00;;;;;;;;;;;;;;;19.46;46.24;98981.97;5074155;28;20369;-60
2023/09/20 09:20:29;;;;;;;;;;;;;;;19.59;46.92;98975.03;5074094;28;19970;-60
2023/09/20 09:22:55;;;;;;;;;;;;;;;19.62;46.41;98977.19;5074070;28;20261;-60
2023/09/20 09:25:30;;;;;;;;;;;;;;;19.58;45.91;98979.66;5073954;28;19919;-60
2023/09/20 09:27:56;;;;;;;;;;;;;;;19.61;45.79;98970.09;5082918;28;20296;-60
2023/09/20 09:30:22;;;;;;;;;;;;;;;19.47;46.27;98968.06;5073904;28;19913;-61
2023/09/20 09:32:47;;;;;;;;;;;;;;;19.46;47.25;98974.59;5074207;28;20007;-60
2023/09/20 09:35:15;;;;;;;;;;;;;;;19.43;46.84;98983.38;5073862;28;20437;-60
2023/09/20 09:37:41;;;;;;;;;;;;;;;19.33;46.70;98986.19;5073816;28;19913;-60
2023/09/20 09:40:06;;;;;;;;;;;;;;;19.25;46.86;98984.91;5074058;28;19962;-60
2023/09/20 09:42:32;;;;;;;;;;;;;;;19.28;47.15;98981.63;5073805;28;20407;-60
2023/09/20 09:44:58;;;;;;;;;;;;;;;19.21;46.78;98988.50;5073606;28;19917;-60
2023/09/20 09:47:24;;;;;;;;;;;;;;;19.21;47.08;98986.59;5073966;28;19912;-60
2023/09/20 09:49:51;;;;;;;;;;;;;;;19.16;46.72;98986.63;5073572;28;19923;-60
2023/09/20 09:52:17;;;;;;;;;;;;;;;19.18;46.57;98989.06;5073629;28;20308;-60
2023/09/20 09:54:44;;;;;;;;;;;;;;;19.18;46.79;98987.16;5073175;28;19916;-60
2023/09/20 09:57:10;;;;;;;;;;;;;;;19.18;46.97;98991.78;5088281;28;19991;-60
2023/09/20 09:59:36;;;;;;;;;;;;;;;19.18;46.96;98984.44;5073421;28;19919;-60
2023/09/20 10:02:02;;;;;;;;;;;;;;;19.20;46.99;98981.41;5065976;28;19913;-60
2023/09/20 10:04:30;;;;;;;;;;;;;;;19.27;47.37;98971.00;5053458;28;19913;-59
2023/09/20 10:07:02;;;;;;;;;;;;;;;19.28;46.67;98973.44;5053444;28;19920;-59
2023/09/20 10:09:30;;;;;;;;;;;;;;;19.36;47.10;98972.00;5053173;28;19931;-60
2023/09/20 10:11:55;;;;;;;;;;;;;;;19.40;46.70;98966.78;5073258;28;19924;-60
2023/09/20 10:14:22;;;;;;;;;;;;;;;19.46;46.66;98963.72;5073090;28;19912;-61
2023/09/20 10:16:48;;;;;;;;;;;;;;;19.54;46.40;98965.81;5087025;28;20376;-60
2023/09/20 10:19:14;;;;;;;;;;;;;;;19.62;46.11;98956.19;5093309;28;19913;-60
2023/09/20 10:21:58;;;;;;;;;;;;;;;19.79;46.02;98961.19;5093229;28;19926;-60
2023/09/20 10:24:28;;;;;;;;;;;;;;;19.97;46.08;98961.53;5093439;28;19912;-59
2023/09/20 10:26:54;;;;;;;;;;;;;;;20.12;46.20;98964.03;5091966;28;19912;-60
2023/09/20 10:29:23;;;;;;;;;;;;;;;20.33;46.16;98955.56;5072646;28;19930;-60
2023/09/20 10:31:49;;;;;;;;;;;;;;;20.50;44.99;98969.47;5073038;28;19919;-60
2023/09/20 10:34:14;;;;;;;;;;;;;;;20.61;44.82;98968.22;5073333;28;20019;-61
2023/09/20 10:36:51;;;;;;;;;;;;;;;20.65;44.94;98968.44;5073067;28;19916;-61
2023/09/20 10:39:17;;;;;;;;;;;;;;;20.68;44.47;98976.06;5072926;28;19924;-60
2023/09/20 10:41:42;;;;;;;;;;;;;;;20.63;44.95;98985.13;5072996;28;19912;-61
2023/09/20 10:44:09;;;;;;;;;;;;;;;20.57;45.38;98978.09;5072998;28;19919;-60
2023/09/20 10:46:37;;;;;;;;;;;;;;;20.62;45.31;98980.78;5073189;28;19963;-60
2023/09/20 10:49:04;;;;;;;;;;;;;;;20.64;44.71;98975.03;5072797;28;19940;-60
2023/09/20 10:51:39;;;;;;;;;;;;;;;20.61;45.09;98981.88;5072932;28;19970;-61
2023/09/20 10:54:25;;;;;;;;;;;;;;;20.56;44.49;98984.66;5064009;28;20321;-61
2023/09/20 10:56:53;;;;;;;;;;;;;;;20.52;45.28;98966.44;5089494;28;19916;-61
2023/09/20 10:59:25;;;;;;;;;;;;;;;20.53;45.38;98970.81;5093177;28;19912;-60
2023/09/20 11:01:51;;;;;;;;;;;;;;;20.59;45.73;98975.06;5086874;28;19935;-61
2023/09/20 11:04:17;;;;;;;;;;;;;;;20.65;45.00;98966.56;5073043;28;20006;-60
2023/09/20 11:06:48;;;;;;;;;;;;;;;20.72;45.80;98966.16;5072893;28;19919;-60
2023/09/20 11:09:15;;;;;;;;;;;;;;;20.81;44.56;98967.09;5072603;28;19925;-60
2023/09/20 11:11:41;;;;;;;;;;;;;;;20.87;45.80;98959.63;5054699;28;19956;-61
2023/09/20 11:14:06;;;;;;;;;;;;;;;20.89;44.44;98962.88;5052824;28;19913;-60
2023/09/20 11:16:32;;;;;;;;;;;;;;;20.86;45.42;98956.09;5076290;28;19995;-61
2023/09/20 11:18:59;;;;;;;;;;;;;;;20.81;45.64;98964.38;5093303;28;19920;-61
2023/09/20 11:21:24;;;;;;;;;;;;;;;20.86;44.93;98972.47;5093329;28;19957;-61
2023/09/20 11:23:50;;;;;;;;;;;;;;;20.92;45.64;98967.75;5093099;28;19912;-60
2023/09/20 11:26:28;;;;;;;;;;;;;;;20.88;44.87;98962.06;5093109;28;20222;-60
2023/09/20 11:28:54;;;;;;;;;;;;;;;20.88;45.72;98969.47;5074696;28;19919;-61
2023/09/20 11:31:27;;;;;;;;;;;;;;;20.88;45.18;98969.47;5072883;28;19917;-60
2023/09/20 11:33:59;;;;;;;;;;;;;;;20.94;45.40;98972.91;5072458;28;19912;-59
2023/09/20 11:36:25;;;;;;;;;;;;;;;20.96;45.01;98968.75;5072082;28;20011;-59
2023/09/20 11:38:51;;;;;;;;;;;;;;;20.94;45.43;98960.06;5052334;28;19948;-61
2023/09/20 11:41:17;;;;;;;;;;;;;;;20.99;45.47;98973.63;5054195;28;19913;-59
2023/09/20 11:43:44;;;;;;;;;;;;;;;21.13;46.41;98970.13;5055635;28;19920;-61
2023/09/20 11:46:10;;;;;;;;;;;;;;;21.15;45.93;98973.34;5055997;28;20027;-60
2023/09/20 11:48:36;;;;;;;;;;;;;;;21.19;45.66;98969.72;5055908;28;19946;-61
2023/09/20 11:51:02;;;;;;;;;;;;;;;21.18;46.76;98972.75;5070005;28;20360;-60
2023/09/20 11:53:29;;;;;;;;;;;;;;;21.17;45.75;98973.84;5057830;28;19928;-60
2023/09/20 11:55:55;;;;;;;;;;;;;;;21.20;45.85;98976.81;5075001;28;19917;-60
2023/09/20 11:58:20;;;;;;;;;;;;;;;21.28;45.29;98972.56;5075826;28;20018;-61
2023/09/20 12:00:46;;;;;;;;;;;;;;;21.27;45.29;98968.22;5075901;28;19913;-60
2023/09/20 12:03:11;;;;;;;;;;;;;;;21.39;45.15;98968.53;5075694;28;19940;-61
2023/09/20 12:05:38;;;;;;;;;;;;;;;21.47;45.16;98964.34;5075566;28;20344;-61
2023/09/20 12:08:06;;;;;;;;;;;;;;;21.51;45.27;98962.63;5075688;28;19928;-59
2023/09/20 12:10:31;;;;;;;;;;;;;;;21.54;45.69;98959.25;5067125;28;19983;-61
2023/09/20 12:12:57;;;;;;;;;;;;;;;21.55;45.47;98971.00;5055750;28;20373;-61
2023/09/20 12:15:25;;;;;;;;;;;;;;;21.54;45.58;98964.72;5059922;28;19923;-61
2023/09/20 12:17:51;;;;;;;;;;;;;;;21.56;45.84;98967.16;5096262;28;19912;-60
2023/09/20 12:20:17;;;;;;;;;;;;;;;21.51;45.41;98968.06;5095746;28;19959;-61
2023/09/20 12:22:43;;;;;;;;;;;;;;;21.46;45.88;98974.44;5095734;28;19916;-60
2023/09/20 12:25:11;;;;;;;;;;;;;;;21.48;46.14;98987.00;5095490;28;19913;-61
2023/09/20 12:27:36;;;;;;;;;;;;;;;21.44;44.84;98973.09;5087725;28;20007;-58
2023/09/20 12:30:03;;;;;;;;;;;;;;;21.45;46.77;98982.91;5075041;28;20010;-58
2023/09/20 12:32:28;;;;;;;;;;;;;;;21.44;45.36;98970.38;5075319;28;20428;-60
2023/09/20 12:34:55;;;;;;;;;;;;;;;21.43;45.63;98969.56;5075005;28;20000;-59
2023/09/20 12:37:20;;;;;;;;;;;;;;;21.43;45.65;98975.03;5074961;28;19944;-60
2023/09/20 12:39:46;;;;;;;;;;;;;;;21.36;45.51;98976.50;5075225;28;19958;-61
2023/09/20 12:42:12;;;;;;;;;;;;;;;21.32;45.39;98975.50;5074883;28;19919;-59
2023/09/20 12:44:37;;;;;;;;;;;;;;;21.34;45.54;98979.56;5074901;28;20290;-60
2023/09/20 12:47:02;;;;;;;;;;;;;;;21.33;45.90;98975.19;5075184;28;19912;-61
2023/09/20 12:49:28;;;;;;;;;;;;;;;21.33;46.08;98982.59;5074656;28;19932;-61
2023/09/20 12:51:53;;;;;;;;;;;;;;;21.30;45.93;98970.34;5074270;28;19912;-61
2023/09/20 12:54:18;;;;;;;;;;;;;;;21.30;45.98;98964.88;5074341;28;19912;-61
2023/09/20 12:56:44;;;;;;;;;;;;;;;21.27;45.94;98960.84;5092117;28;19915;-61
2023/09/20 12:59:11;;;;;;;;;;;;;;;21.32;45.53;98959.94;5095238;28;19916;-61
2023/09/20 13:01:38;;;;;;;;;;;;;;;21.40;46.21;98942.84;5081016;28;19966;-61
2023/09/20 13:04:03;;;;;;;;;;;;;;;21.50;45.64;98949.25;5054938;28;19921;-61
2023/09/20 13:06:28;;;;;;;;;;;;;;;21.58;45.61;98935.72;5054663;28;19917;-61
2023/09/20 13:08:55;;;;;;;;;;;;;;;21.62;46.21;98930.44;5054429;28;19920;-61
2023/09/20 13:11:22;;;;;;;;;;;;;;;21.63;45.82;98937.50;5069728;28;19912;-61
2023/09/20 13:13:47;;;;;;;;;;;;;;;21.62;45.91;98928.50;5074201;28;19962;-60
2023/09/20 13:16:13;;;;;;;;;;;;;;;21.67;45.80;98927.59;5083131;28;19916;-61
2023/09/20 13:18:38;;;;;;;;;;;;;;;21.75;46.14;98926.06;5094297;28;20391;-61
2023/09/20 13:21:04;;;;;;;;;;;;;;;21.75;45.85;98934.25;5094418;28;19912;-61
2023/09/20 13:23:30;;;;;;;;;;;;;;;21.76;46.04;98931.22;5094326;28;19916;-61
2023/09/20 13:25:55;;;;;;;;;;;;;;;21.79;45.38;98938.81;5094284;28;19912;-61
2023/09/20 13:28:20;;;;;;;;;;;;;;;21.79;45.65;98943.47;5088123;28;19916;-60